createdAt,value
2023-08-31T00:00:40.512Z,22.20
2023-08-31T00:03:07.182Z,22.20
2023-08-31T00:05:33.756Z,22.20
2023-08-31T00:08:00.406Z,22.10
2023-08-31T00:10:26.918Z,22.20
2023-08-31T00:12:53.440Z,22.20
2023-08-31T00:15:19.929Z,22.10
2023-08-31T00:17:46.526Z,22.20
2023-08-31T00:20:13.161Z,22.20
2023-08-31T00:22:39.698Z,22.20
2023-08-31T00:25:06.190Z,22.20
2023-08-31T00:27:32.677Z,22.10
2023-08-31T00:29:59.168Z,22.20
2023-08-31T00:32:25.695Z,22.20
2023-08-31T00:34:52.232Z,22.10
2023-08-31T00:37:18.701Z,22.10
2023-08-31T00:39:45.205Z,22.10
2023-08-31T00:42:11.709Z,22.10
2023-08-31T00:44:38.211Z,22.10
2023-08-31T00:47:04.707Z,22.10
2023-08-31T00:49:31.199Z,22.10
2023-08-31T00:51:57.671Z,22.10
2023-08-31T00:54:24.382Z,22.10
2023-08-31T00:56:50.886Z,22.10
2023-08-31T00:59:17.405Z,22.10
2023-08-31T01:01:43.939Z,22.10
2023-08-31T01:04:10.557Z,22.10
2023-08-31T01:06:37.112Z,22.10
2023-08-31T01:09:03.649Z,22.10
2023-08-31T01:11:30.110Z,22.10
2023-08-31T01:13:56.604Z,22.10
2023-08-31T01:16:23.100Z,22.10
2023-08-31T01:18:49.600Z,22.10
2023-08-31T01:21:16.131Z,22.10
2023-08-31T01:23:42.632Z,22.10
2023-08-31T01:26:09.158Z,22.10
2023-08-31T01:28:35.659Z,22.10
2023-08-31T01:31:02.178Z,22.10
2023-08-31T01:33:28.705Z,22.10
2023-08-31T01:35:55.223Z,22.10
2023-08-31T01:38:21.696Z,22.10
2023-08-31T01:40:48.158Z,22.10
2023-08-31T01:43:14.814Z,22.10
2023-08-31T01:45:41.479Z,22.10
2023-08-31T01:48:08.011Z,22.10
2023-08-31T01:50:34.577Z,22.10
2023-08-31T01:53:01.093Z,22.10
2023-08-31T01:55:27.611Z,22.10
2023-08-31T01:57:54.082Z,22.10
2023-08-31T02:00:20.669Z,22.20
2023-08-31T02:02:47.275Z,22.10
2023-08-31T02:05:13.821Z,22.10
2023-08-31T02:07:40.294Z,22.10
2023-08-31T02:10:06.809Z,22.10
2023-08-31T02:12:33.277Z,22.10
2023-08-31T02:14:59.778Z,22.10
2023-08-31T02:17:26.296Z,22.10
2023-08-31T02:19:52.814Z,22.10
2023-08-31T02:22:19.345Z,22.00
2023-08-31T02:24:45.832Z,22.10
2023-08-31T02:27:12.324Z,22.10
2023-08-31T02:29:38.833Z,22.10
2023-08-31T02:32:05.353Z,22.10
2023-08-31T02:34:31.879Z,22.10
2023-08-31T02:36:58.383Z,22.00
2023-08-31T02:39:24.918Z,22.10
2023-08-31T02:41:51.453Z,22.10
2023-08-31T02:44:18.406Z,22.10
2023-08-31T02:46:45.901Z,22.10
2023-08-31T02:49:12.374Z,22.10
2023-08-31T02:51:38.844Z,22.10
2023-08-31T02:54:05.373Z,22.10
2023-08-31T02:56:31.868Z,22.10
2023-08-31T02:58:58.360Z,22.00
2023-08-31T03:01:24.865Z,22.10
2023-08-31T03:03:51.364Z,22.10
2023-08-31T03:06:17.896Z,22.00
2023-08-31T03:08:44.368Z,22.00
2023-08-31T03:11:10.876Z,22.00
2023-08-31T03:13:37.369Z,22.00
2023-08-31T03:16:03.927Z,22.00
2023-08-31T03:18:30.455Z,22.00
2023-08-31T03:20:56.930Z,22.00
2023-08-31T03:23:23.407Z,22.00
2023-08-31T03:25:49.982Z,22.00
2023-08-31T03:28:16.583Z,22.00
2023-08-31T03:30:43.136Z,22.00
2023-08-31T03:33:10.172Z,22.00
2023-08-31T03:35:37.148Z,22.00
2023-08-31T03:38:03.625Z,22.00
2023-08-31T03:40:30.131Z,22.00
2023-08-31T03:42:56.689Z,22.00
2023-08-31T03:45:23.247Z,22.10
2023-08-31T03:47:49.822Z,22.00
2023-08-31T03:50:16.404Z,22.00
2023-08-31T03:52:42.917Z,22.00
2023-08-31T03:55:09.418Z,22.00
2023-08-31T03:57:35.937Z,22.00
2023-08-31T04:00:02.493Z,22.00
2023-08-31T04:02:29.035Z,22.00
2023-08-31T04:04:55.569Z,22.00
2023-08-31T04:07:22.087Z,22.00
2023-08-31T04:09:48.586Z,22.00
2023-08-31T04:12:15.142Z,22.00
2023-08-31T04:14:41.616Z,22.00
2023-08-31T04:17:08.152Z,22.00
2023-08-31T04:19:34.837Z,21.90
2023-08-31T04:22:01.333Z,22.00
2023-08-31T04:24:27.825Z,22.00
2023-08-31T04:26:54.371Z,22.00
2023-08-31T04:29:20.874Z,22.00
2023-08-31T04:31:47.409Z,22.00
2023-08-31T04:34:13.922Z,22.00
2023-08-31T04:36:40.412Z,22.00
2023-08-31T04:39:06.942Z,22.00
2023-08-31T04:41:33.413Z,22.00
2023-08-31T04:43:59.934Z,22.00
2023-08-31T04:46:26.439Z,22.00
2023-08-31T04:48:52.980Z,22.00
2023-08-31T04:51:19.445Z,22.00
2023-08-31T04:53:45.907Z,22.00
2023-08-31T04:56:12.421Z,22.00
2023-08-31T04:58:38.902Z,22.00
2023-08-31T05:01:05.402Z,22.10
2023-08-31T05:03:31.962Z,22.00
2023-08-31T05:05:58.513Z,22.00
2023-08-31T05:08:25.070Z,22.00
2023-08-31T05:10:51.593Z,22.00
2023-08-31T05:13:18.072Z,22.00
2023-08-31T05:15:44.586Z,22.00
2023-08-31T05:18:11.104Z,22.00
2023-08-31T05:20:37.632Z,22.00
2023-08-31T05:23:04.134Z,22.00
2023-08-31T05:25:30.625Z,22.10
2023-08-31T05:27:57.092Z,22.00
2023-08-31T05:30:23.592Z,22.00
2023-08-31T05:32:50.126Z,22.00
2023-08-31T05:35:16.638Z,22.00
2023-08-31T05:37:43.157Z,22.10
2023-08-31T05:40:09.656Z,22.00
2023-08-31T05:42:36.116Z,22.00
2023-08-31T05:45:02.613Z,22.10
2023-08-31T05:47:29.159Z,22.00
2023-08-31T05:49:55.732Z,22.00
2023-08-31T05:52:22.198Z,22.00
2023-08-31T05:54:48.708Z,22.00
2023-08-31T05:57:15.206Z,22.00
2023-08-31T05:59:41.685Z,22.00
2023-08-31T06:02:08.159Z,22.00
2023-08-31T06:04:34.706Z,22.00
2023-08-31T06:07:01.250Z,22.00
2023-08-31T06:09:27.771Z,22.00
2023-08-31T06:11:54.300Z,22.00
2023-08-31T06:14:20.863Z,22.00
2023-08-31T06:16:47.374Z,22.00
2023-08-31T06:19:13.960Z,22.00
2023-08-31T06:21:40.444Z,22.00
2023-08-31T06:24:06.984Z,22.00
2023-08-31T06:26:33.468Z,22.10
2023-08-31T06:28:59.944Z,22.10
2023-08-31T06:31:26.438Z,22.10
2023-08-31T06:33:52.930Z,22.10
2023-08-31T06:36:19.403Z,22.00
2023-08-31T06:38:45.884Z,21.90
2023-08-31T06:41:12.432Z,21.90
2023-08-31T06:43:38.942Z,21.90
2023-08-31T06:46:23.029Z,21.90
2023-08-31T06:48:50.092Z,21.90
2023-08-31T06:51:16.617Z,22.00
2023-08-31T06:53:43.092Z,22.00
2023-08-31T06:56:09.625Z,21.10
2023-08-31T06:58:36.153Z,22.00
2023-08-31T07:01:02.686Z,22.00
2023-08-31T07:03:29.282Z,22.10
2023-08-31T07:05:55.910Z,22.10
2023-08-31T07:08:22.461Z,22.10
2023-08-31T07:10:49.014Z,22.20
2023-08-31T07:13:15.562Z,22.20
2023-08-31T07:15:42.173Z,22.20
2023-08-31T07:18:08.743Z,22.20
2023-08-31T07:20:35.360Z,22.20
2023-08-31T07:23:01.968Z,22.30
2023-08-31T07:25:28.497Z,22.30
2023-08-31T07:27:54.976Z,22.30
2023-08-31T07:30:21.455Z,22.30
2023-08-31T07:32:47.953Z,22.30
2023-08-31T07:35:14.482Z,22.30
2023-08-31T07:37:40.985Z,22.30
2023-08-31T07:40:07.482Z,22.30
2023-08-31T07:42:33.979Z,22.30
2023-08-31T07:45:00.466Z,22.30
2023-08-31T07:47:26.981Z,22.30
2023-08-31T07:49:53.475Z,22.30
2023-08-31T07:52:19.970Z,22.30
2023-08-31T07:54:46.460Z,22.40
2023-08-31T07:57:12.946Z,22.40
2023-08-31T07:59:39.433Z,22.40
2023-08-31T08:02:06.027Z,22.40
2023-08-31T08:04:32.569Z,22.40
2023-08-31T08:06:59.119Z,22.40
2023-08-31T08:09:25.642Z,22.40
2023-08-31T08:11:52.239Z,22.50
2023-08-31T08:14:18.761Z,22.50
2023-08-31T08:16:45.355Z,22.50
2023-08-31T08:19:12.024Z,22.50
2023-08-31T08:21:38.569Z,22.50
2023-08-31T08:24:05.159Z,22.50
2023-08-31T08:26:31.677Z,22.50
2023-08-31T08:28:58.208Z,22.50
2023-08-31T08:31:25.921Z,22.50
2023-08-31T08:33:52.711Z,22.50
2023-08-31T08:36:19.218Z,22.60
2023-08-31T08:38:45.716Z,22.60
2023-08-31T08:41:12.317Z,22.60
2023-08-31T08:43:38.921Z,22.60
2023-08-31T08:46:05.541Z,22.60
2023-08-31T08:48:32.158Z,22.60
2023-08-31T08:50:58.668Z,22.50
2023-08-31T08:53:25.161Z,22.60
2023-08-31T08:55:51.671Z,22.60
2023-08-31T08:58:18.186Z,22.60
2023-08-31T09:00:44.658Z,22.60
2023-08-31T09:03:11.562Z,22.60
2023-08-31T09:05:38.243Z,22.60
2023-08-31T09:08:04.783Z,22.60
2023-08-31T09:10:31.306Z,22.60
2023-08-31T09:12:57.822Z,22.50
2023-08-31T09:15:24.302Z,22.50
2023-08-31T09:17:50.984Z,22.50
2023-08-31T09:20:17.529Z,22.50
2023-08-31T09:22:44.109Z,22.50
2023-08-31T09:25:10.662Z,22.50
2023-08-31T09:27:37.297Z,22.50
2023-08-31T09:30:03.793Z,22.50
2023-08-31T09:32:30.376Z,22.50
2023-08-31T09:35:10.637Z,22.50
2023-08-31T09:37:43.342Z,22.50
2023-08-31T09:40:09.872Z,22.50
2023-08-31T09:42:36.393Z,22.50
2023-08-31T09:45:02.946Z,22.50
2023-08-31T09:47:29.546Z,22.50
2023-08-31T09:49:56.125Z,22.50
2023-08-31T09:52:22.622Z,22.50
2023-08-31T09:54:49.154Z,22.50
2023-08-31T09:57:15.715Z,22.50
2023-08-31T09:59:42.223Z,22.50
2023-08-31T10:02:08.981Z,22.50
2023-08-31T10:04:35.531Z,22.50
2023-08-31T10:07:02.044Z,22.60
2023-08-31T10:09:28.558Z,22.60
2023-08-31T10:11:55.062Z,22.60
2023-08-31T10:14:21.559Z,22.60
2023-08-31T10:16:48.071Z,22.60
2023-08-31T10:19:14.697Z,22.60
2023-08-31T10:21:41.244Z,22.60
2023-08-31T10:24:07.807Z,22.60
2023-08-31T10:26:34.333Z,22.60
2023-08-31T10:29:00.879Z,22.60
2023-08-31T10:31:27.451Z,22.60
2023-08-31T10:33:53.936Z,22.60
2023-08-31T10:36:20.411Z,22.60
2023-08-31T10:38:46.920Z,22.60
2023-08-31T10:41:13.503Z,22.60
2023-08-31T10:43:46.733Z,22.60
2023-08-31T10:46:14.088Z,22.60
2023-08-31T10:48:40.594Z,22.50
2023-08-31T10:51:07.258Z,22.60
2023-08-31T10:53:33.791Z,22.60
2023-08-31T10:56:00.292Z,22.60
2023-08-31T10:58:26.818Z,22.60
2023-08-31T11:00:53.298Z,22.60
2023-08-31T11:03:19.854Z,22.60
2023-08-31T11:05:46.415Z,22.60
2023-08-31T11:08:12.947Z,22.60
2023-08-31T11:10:39.432Z,22.60
2023-08-31T11:13:06.000Z,22.60
2023-08-31T11:15:32.481Z,22.60
2023-08-31T11:17:59.144Z,22.60
2023-08-31T11:20:25.713Z,22.60
2023-08-31T11:22:52.358Z,22.60
2023-08-31T11:25:19.084Z,22.60
2023-08-31T11:27:45.809Z,22.60
2023-08-31T11:30:12.330Z,22.60
2023-08-31T11:32:38.826Z,22.60
2023-08-31T11:35:05.451Z,22.60
2023-08-31T11:37:31.965Z,22.60
2023-08-31T11:39:58.451Z,22.60
2023-08-31T11:42:24.914Z,22.30
2023-08-31T11:44:51.428Z,22.50
2023-08-31T11:47:18.113Z,22.50
2023-08-31T11:49:44.669Z,22.50
2023-08-31T11:52:11.139Z,22.50
2023-08-31T11:54:37.655Z,22.50
2023-08-31T11:57:04.151Z,22.50
2023-08-31T11:59:30.644Z,22.40
2023-08-31T12:01:57.176Z,22.50
2023-08-31T12:04:23.882Z,22.50
2023-08-31T12:06:50.505Z,22.50
2023-08-31T12:09:17.005Z,22.50
2023-08-31T12:11:43.522Z,22.50
2023-08-31T12:14:10.052Z,22.50
2023-08-31T12:16:36.576Z,22.50
2023-08-31T12:19:03.067Z,22.50
2023-08-31T12:21:29.570Z,22.40
2023-08-31T12:23:56.058Z,22.50
2023-08-31T12:26:22.540Z,22.50
2023-08-31T12:28:49.087Z,22.40
2023-08-31T12:31:15.635Z,22.50
2023-08-31T12:33:42.195Z,22.50
2023-08-31T12:36:08.713Z,22.50
2023-08-31T12:38:35.261Z,22.50
2023-08-31T12:41:01.791Z,22.40
2023-08-31T12:43:28.283Z,22.40
2023-08-31T12:45:54.852Z,22.40
2023-08-31T12:48:21.398Z,22.40
2023-08-31T12:50:47.883Z,22.40
2023-08-31T12:53:14.623Z,22.40
2023-08-31T12:55:41.252Z,22.40
2023-08-31T12:58:07.791Z,22.40
2023-08-31T13:00:34.400Z,22.40
2023-08-31T13:03:01.007Z,22.50
2023-08-31T13:05:27.609Z,22.40
2023-08-31T13:07:54.118Z,22.40
2023-08-31T13:10:20.629Z,22.40
2023-08-31T13:12:47.153Z,22.40
2023-08-31T13:15:13.672Z,22.40
2023-08-31T13:17:40.239Z,22.40
2023-08-31T13:20:06.746Z,22.50
2023-08-31T13:22:33.254Z,22.40
2023-08-31T13:24:59.769Z,22.40
2023-08-31T13:27:26.294Z,22.40
2023-08-31T13:29:52.824Z,22.40
2023-08-31T13:32:19.346Z,22.40
2023-08-31T13:34:45.844Z,22.40
2023-08-31T13:37:12.344Z,22.40
2023-08-31T13:39:38.856Z,22.40
2023-08-31T13:42:05.357Z,22.40
2023-08-31T13:44:31.858Z,22.50
2023-08-31T13:46:58.373Z,22.40
2023-08-31T13:49:24.872Z,22.40
2023-08-31T13:51:51.429Z,22.40
2023-08-31T13:54:17.937Z,22.40
2023-08-31T13:56:44.397Z,22.40
2023-08-31T13:59:10.882Z,22.40
2023-08-31T14:01:37.422Z,22.40
2023-08-31T14:04:04.018Z,22.40
2023-08-31T14:06:30.651Z,22.40
2023-08-31T14:08:57.161Z,22.40
2023-08-31T14:11:23.709Z,22.40
2023-08-31T14:13:50.240Z,22.40
2023-08-31T14:16:16.808Z,22.40
2023-08-31T14:18:43.368Z,22.40
2023-08-31T14:21:09.841Z,22.40
2023-08-31T14:23:36.329Z,22.40
2023-08-31T14:26:02.814Z,22.40
2023-08-31T14:28:29.291Z,22.50
2023-08-31T14:30:55.791Z,22.40
2023-08-31T14:33:22.280Z,22.40
2023-08-31T14:35:48.775Z,22.40
2023-08-31T14:38:15.574Z,22.30
2023-08-31T14:40:42.220Z,22.40
2023-08-31T14:43:08.935Z,22.40
2023-08-31T14:45:35.571Z,22.40
2023-08-31T14:48:02.114Z,22.40
2023-08-31T14:50:28.655Z,22.40
2023-08-31T14:52:55.165Z,22.40
2023-08-31T14:55:21.673Z,22.40
2023-08-31T14:57:48.186Z,22.30
2023-08-31T15:00:14.698Z,22.40
2023-08-31T15:02:41.313Z,22.40
2023-08-31T15:05:07.921Z,22.40
2023-08-31T15:07:34.475Z,22.40
2023-08-31T15:10:01.032Z,22.40
2023-08-31T15:12:27.626Z,22.40
2023-08-31T15:14:54.129Z,22.40
2023-08-31T15:17:20.645Z,22.40
2023-08-31T15:19:47.166Z,22.30
2023-08-31T15:22:13.675Z,22.40
2023-08-31T15:24:40.180Z,22.30
2023-08-31T15:27:06.694Z,22.40
2023-08-31T15:29:33.192Z,22.40
2023-08-31T15:31:59.710Z,22.30
2023-08-31T15:34:26.223Z,22.40
2023-08-31T15:36:52.721Z,22.40
2023-08-31T15:39:19.199Z,22.40
2023-08-31T15:41:45.689Z,22.40
2023-08-31T15:44:12.207Z,22.40
2023-08-31T15:46:38.841Z,22.30
2023-08-31T15:49:05.358Z,22.30
2023-08-31T15:51:31.864Z,22.40
2023-08-31T15:53:58.353Z,22.40
2023-08-31T15:56:24.836Z,22.40
2023-08-31T15:58:51.344Z,22.40
2023-08-31T16:01:17.886Z,22.40
2023-08-31T16:03:44.470Z,22.40
2023-08-31T16:06:10.979Z,22.30
2023-08-31T16:08:37.517Z,22.40
2023-08-31T16:11:04.052Z,22.40
2023-08-31T16:13:30.574Z,22.40
2023-08-31T16:15:57.099Z,22.40
2023-08-31T16:18:23.681Z,22.40
2023-08-31T16:20:50.266Z,22.40
2023-08-31T16:23:16.786Z,22.40
2023-08-31T16:25:43.294Z,22.40
2023-08-31T16:28:09.819Z,22.40
2023-08-31T16:30:36.370Z,22.40
2023-08-31T16:33:02.947Z,22.40
2023-08-31T16:35:29.533Z,22.40
2023-08-31T16:37:56.052Z,22.40
2023-08-31T16:40:22.566Z,22.40
2023-08-31T16:42:49.069Z,22.30
2023-08-31T16:45:15.610Z,22.30
2023-08-31T16:47:42.110Z,22.20
2023-08-31T16:50:08.679Z,22.20
2023-08-31T16:52:35.167Z,22.30
2023-08-31T16:55:01.672Z,22.30
2023-08-31T16:57:28.208Z,22.30
2023-08-31T16:59:54.724Z,22.30
2023-08-31T17:02:21.309Z,22.30
2023-08-31T17:04:47.978Z,22.30
2023-08-31T17:07:14.592Z,22.30
2023-08-31T17:09:41.104Z,22.40
2023-08-31T17:12:07.601Z,22.30
2023-08-31T17:14:34.113Z,22.30
2023-08-31T17:17:00.661Z,22.20
2023-08-31T17:19:27.231Z,22.30
2023-08-31T17:21:53.747Z,22.30
2023-08-31T17:24:20.226Z,22.30
2023-08-31T17:26:46.744Z,22.30
2023-08-31T17:29:13.252Z,22.30
2023-08-31T17:31:39.762Z,22.30
2023-08-31T17:34:06.304Z,22.30
2023-08-31T17:36:32.915Z,22.30
2023-08-31T17:38:59.458Z,22.30
2023-08-31T17:41:25.960Z,22.20
2023-08-31T17:43:52.473Z,22.30
2023-08-31T17:46:19.039Z,22.30
2023-08-31T17:48:45.549Z,22.30
2023-08-31T17:51:13.490Z,22.30
2023-08-31T17:53:40.161Z,22.30
2023-08-31T17:56:06.651Z,20.40
2023-08-31T17:58:33.184Z,22.30
2023-08-31T18:00:59.774Z,22.30
2023-08-31T18:03:26.720Z,22.30
2023-08-31T18:05:53.273Z,22.30
2023-08-31T18:08:19.808Z,22.30
2023-08-31T18:10:46.312Z,22.30
2023-08-31T18:13:12.808Z,22.30
2023-08-31T18:15:39.484Z,22.30
2023-08-31T18:18:06.089Z,22.30
2023-08-31T18:20:32.600Z,22.30
2023-08-31T18:22:59.092Z,22.30
2023-08-31T18:25:25.580Z,22.30
2023-08-31T18:27:52.180Z,22.30
2023-08-31T18:30:18.676Z,22.30
2023-08-31T18:32:46.345Z,22.30
2023-08-31T18:35:13.024Z,22.30
2023-08-31T18:37:39.543Z,22.30
2023-08-31T18:40:06.082Z,22.30
2023-08-31T18:42:32.579Z,22.30
2023-08-31T18:44:59.485Z,22.20
2023-08-31T18:47:26.162Z,22.30
2023-08-31T18:49:52.685Z,22.30
2023-08-31T18:52:19.207Z,22.20
2023-08-31T18:54:45.720Z,22.30
2023-08-31T18:57:12.226Z,22.30
2023-08-31T18:59:38.822Z,22.30
2023-08-31T19:02:05.432Z,22.30
2023-08-31T19:04:31.989Z,22.30
2023-08-31T19:06:58.557Z,22.20
2023-08-31T19:09:25.103Z,22.30
2023-08-31T19:11:51.654Z,22.30
2023-08-31T19:14:18.178Z,22.30
2023-08-31T19:16:44.732Z,22.30
2023-08-31T19:19:11.229Z,22.20
2023-08-31T19:21:37.727Z,22.30
2023-08-31T19:24:04.221Z,22.30
2023-08-31T19:26:30.729Z,22.30
2023-08-31T19:28:57.229Z,22.30
2023-08-31T19:31:23.866Z,22.30
2023-08-31T19:33:50.361Z,22.30
2023-08-31T19:36:16.855Z,22.20
2023-08-31T19:38:43.392Z,22.30
2023-08-31T19:41:09.883Z,22.30
2023-08-31T19:43:36.363Z,22.30
2023-08-31T19:46:02.994Z,22.30
2023-08-31T19:48:29.532Z,22.30
2023-08-31T19:50:56.047Z,22.30
2023-08-31T19:53:22.582Z,22.30
2023-08-31T19:55:49.113Z,22.30
2023-08-31T19:58:15.979Z,22.30
2023-08-31T20:00:42.773Z,22.20
2023-08-31T20:03:09.420Z,22.30
2023-08-31T20:05:35.981Z,22.20
2023-08-31T20:08:02.734Z,22.20
2023-08-31T20:10:31.123Z,22.30
2023-08-31T20:12:57.614Z,22.20
2023-08-31T20:15:24.119Z,22.20
2023-08-31T20:17:50.657Z,22.20
2023-08-31T20:20:17.210Z,22.20
2023-08-31T20:22:43.752Z,22.20
2023-08-31T20:25:10.226Z,22.20
2023-08-31T20:27:36.719Z,22.20
2023-08-31T20:30:03.262Z,22.20
2023-08-31T20:32:29.820Z,22.20
2023-08-31T20:34:56.328Z,22.20
2023-08-31T20:37:22.861Z,22.20
2023-08-31T20:39:49.396Z,22.20
2023-08-31T20:42:15.901Z,22.20
2023-08-31T20:44:42.388Z,22.20
2023-08-31T20:47:09.013Z,22.10
2023-08-31T20:49:35.607Z,22.10
2023-08-31T20:52:02.133Z,22.10
2023-08-31T20:54:28.631Z,22.20
2023-08-31T20:56:55.146Z,22.20
2023-08-31T20:59:21.658Z,22.10
2023-08-31T21:01:48.194Z,22.10
2023-08-31T21:04:14.848Z,22.20
2023-08-31T21:06:41.424Z,22.10
2023-08-31T21:09:07.967Z,22.10
2023-08-31T21:11:34.489Z,22.10
2023-08-31T21:14:00.995Z,22.10
2023-08-31T21:16:27.527Z,22.10
2023-08-31T21:18:54.080Z,22.10
2023-08-31T21:21:20.625Z,22.10
2023-08-31T21:23:47.125Z,22.10
2023-08-31T21:26:13.659Z,22.10
2023-08-31T21:28:40.153Z,22.10
2023-08-31T21:31:06.737Z,22.10
2023-08-31T21:33:33.294Z,22.10
2023-08-31T21:35:59.824Z,22.10
2023-08-31T21:38:26.312Z,22.10
2023-08-31T21:40:52.830Z,22.10
2023-08-31T21:43:19.331Z,22.10
2023-08-31T21:45:45.907Z,22.10
2023-08-31T21:48:12.680Z,22.10
2023-08-31T21:50:39.363Z,22.20
2023-08-31T21:53:05.875Z,22.10
2023-08-31T21:55:32.380Z,22.10
2023-08-31T21:57:58.907Z,22.10
2023-08-31T22:00:25.396Z,22.10
2023-08-31T22:02:51.960Z,22.10
2023-08-31T22:05:18.580Z,22.10
2023-08-31T22:07:45.065Z,22.10
2023-08-31T22:10:11.556Z,22.10
2023-08-31T22:12:38.040Z,22.10
2023-08-31T22:15:04.561Z,22.10
2023-08-31T22:17:31.151Z,22.10
2023-08-31T22:19:57.816Z,22.10
2023-08-31T22:22:24.368Z,22.10
2023-08-31T22:24:50.900Z,22.10
2023-08-31T22:27:17.418Z,22.10
2023-08-31T22:29:43.896Z,22.10
2023-08-31T22:32:10.461Z,22.10
2023-08-31T22:34:36.976Z,22.10
2023-08-31T22:37:03.450Z,22.10
2023-08-31T22:39:29.944Z,22.10
2023-08-31T22:41:56.459Z,22.10
2023-08-31T22:44:22.957Z,22.10
2023-08-31T22:46:49.449Z,22.10
2023-08-31T22:49:15.966Z,22.10
2023-08-31T22:51:42.451Z,22.10
2023-08-31T22:54:08.942Z,22.10
2023-08-31T22:56:35.449Z,22.10
2023-08-31T22:59:01.988Z,22.10
2023-08-31T23:01:28.531Z,22.10
2023-08-31T23:03:55.057Z,22.10
2023-08-31T23:06:21.584Z,22.10
2023-08-31T23:08:48.106Z,22.00
2023-08-31T23:11:14.627Z,22.10
2023-08-31T23:13:41.143Z,22.00
2023-08-31T23:16:07.688Z,22.00
2023-08-31T23:18:34.276Z,22.00
2023-08-31T23:21:00.793Z,22.10
2023-08-31T23:23:27.337Z,22.10
2023-08-31T23:25:53.841Z,22.10
2023-08-31T23:28:20.331Z,22.00
2023-08-31T23:30:46.858Z,22.00
2023-08-31T23:33:13.393Z,22.00
2023-08-31T23:35:39.926Z,22.00
2023-08-31T23:38:06.432Z,22.00
2023-08-31T23:40:32.922Z,22.00
2023-08-31T23:42:59.395Z,22.00
2023-08-31T23:45:25.896Z,22.10
2023-08-31T23:47:52.441Z,22.10
2023-08-31T23:50:18.980Z,22.10
2023-08-31T23:52:45.495Z,22.10
2023-08-31T23:55:11.986Z,22.00
2023-08-31T23:57:38.491Z,22.00
